createdAt,value
2018-07-23T00:04:43.196Z,8.90
2018-07-23T00:10:12.459Z,9.48
2018-07-23T00:15:42.494Z,8.57
2018-07-23T00:21:11.770Z,7.95
2018-07-23T00:26:41.009Z,8.65
2018-07-23T00:32:10.513Z,7.85
2018-07-23T00:37:39.726Z,8.80
2018-07-23T00:43:09.099Z,9.13
2018-07-23T00:48:38.411Z,10.00
2018-07-23T00:54:07.681Z,8.10
2018-07-23T00:59:37.048Z,9.38
2018-07-23T01:05:06.406Z,9.88
2018-07-23T01:10:35.824Z,7.60
2018-07-23T01:16:04.805Z,9.53
2018-07-23T01:21:34.447Z,7.80
2018-07-23T01:27:03.765Z,8.35
2018-07-23T01:32:32.999Z,9.17
2018-07-23T01:38:02.284Z,8.67
2018-07-23T01:43:31.544Z,8.30
2018-07-23T01:49:00.844Z,8.70
2018-07-23T01:54:30.234Z,9.75
2018-07-23T01:59:59.506Z,8.68
2018-07-23T02:05:28.830Z,8.88
2018-07-23T02:10:58.120Z,9.45
2018-07-23T02:16:28.483Z,8.87
2018-07-23T02:21:57.755Z,8.15
2018-07-23T02:27:26.987Z,9.13
2018-07-23T02:32:56.235Z,8.30
2018-07-23T02:38:25.539Z,9.43
2018-07-23T02:43:54.862Z,8.38
2018-07-23T02:49:24.171Z,10.10
2018-07-23T02:54:53.517Z,10.72
2018-07-23T03:00:22.902Z,12.00
2018-07-23T03:05:52.281Z,15.00
2018-07-23T03:11:21.788Z,16.07
2018-07-23T03:16:52.212Z,16.70
2018-07-23T03:22:21.526Z,18.50
2018-07-23T03:27:50.990Z,18.12
2018-07-23T03:33:20.280Z,19.00
2018-07-23T03:38:49.578Z,19.00
2018-07-23T03:44:18.949Z,19.05
2018-07-23T03:49:48.325Z,17.15
2018-07-23T03:55:18.230Z,18.70
2018-07-23T04:00:47.531Z,15.60
2018-07-23T04:06:16.866Z,15.45
2018-07-23T04:11:46.792Z,15.03
2018-07-23T04:17:16.062Z,14.37
2018-07-23T04:22:45.509Z,14.83
2018-07-23T04:28:14.742Z,14.87
2018-07-23T04:33:44.046Z,12.90
2018-07-23T04:39:13.357Z,13.40
2018-07-23T04:44:42.601Z,12.28
2018-07-23T04:50:11.825Z,12.90
2018-07-23T04:55:41.114Z,11.50
2018-07-23T05:01:10.335Z,12.40
2018-07-23T05:06:39.657Z,10.65
2018-07-23T05:12:08.880Z,11.03
2018-07-23T05:17:38.124Z,11.30
2018-07-23T05:23:07.432Z,11.33
2018-07-23T05:28:36.659Z,10.80
2018-07-23T05:34:05.892Z,10.60
2018-07-23T05:39:35.231Z,10.75
2018-07-23T05:45:04.955Z,10.85
2018-07-23T05:50:34.169Z,11.12
2018-07-23T05:56:03.506Z,11.65
2018-07-23T06:01:32.807Z,10.90
2018-07-23T06:07:02.257Z,11.40
2018-07-23T06:12:31.339Z,11.57
2018-07-23T06:18:00.611Z,10.00
2018-07-23T06:23:29.847Z,10.50
2018-07-23T06:28:59.257Z,9.70
2018-07-23T06:34:28.581Z,9.88
2018-07-23T06:39:57.913Z,9.68
2018-07-23T06:45:27.283Z,10.65
2018-07-23T06:50:56.521Z,10.97
2018-07-23T06:56:25.892Z,10.80
2018-07-23T07:01:55.218Z,10.82
2018-07-23T07:07:24.548Z,11.03
2018-07-23T07:12:54.346Z,11.50
2018-07-23T07:18:23.644Z,12.35
2018-07-23T07:23:53.027Z,12.77
2018-07-23T07:29:22.343Z,12.80
2018-07-23T07:34:51.718Z,11.83
2018-07-23T07:40:21.081Z,12.98
2018-07-23T07:45:50.451Z,12.20
2018-07-23T07:51:19.879Z,12.18
2018-07-23T07:56:49.280Z,13.63
2018-07-23T08:02:18.579Z,12.50
2018-07-23T08:07:47.935Z,14.50
2018-07-23T08:13:17.324Z,12.68
2018-07-23T08:18:46.708Z,13.83
2018-07-23T08:24:16.012Z,13.48
2018-07-23T08:29:45.255Z,12.00
2018-07-23T08:35:14.480Z,12.37
2018-07-23T08:40:43.803Z,13.07
2018-07-23T08:46:13.019Z,12.70
2018-07-23T08:51:42.276Z,13.62
2018-07-23T08:57:13.651Z,13.13
2018-07-23T09:02:42.915Z,13.30
2018-07-23T09:08:12.482Z,13.60
2018-07-23T09:13:41.669Z,13.20
2018-07-23T09:19:11.027Z,12.33
2018-07-23T09:24:40.228Z,14.27
2018-07-23T09:30:14.717Z,15.38
2018-07-23T09:35:43.884Z,14.30
2018-07-23T09:41:13.201Z,13.53
2018-07-23T09:46:42.449Z,15.10
2018-07-23T09:52:11.674Z,14.33
2018-07-23T09:57:40.941Z,15.05
2018-07-23T10:03:10.275Z,16.60
2018-07-23T10:08:39.371Z,15.00
2018-07-23T10:14:09.024Z,12.93
2018-07-23T10:19:38.265Z,16.10
2018-07-23T10:25:07.534Z,15.95
2018-07-23T10:30:36.788Z,15.30
2018-07-23T10:36:06.025Z,16.25
2018-07-23T10:41:35.239Z,17.60
2018-07-23T10:47:04.508Z,15.13
2018-07-23T10:52:33.688Z,14.20
2018-07-23T10:58:03.019Z,16.62
2018-07-23T11:03:32.247Z,15.13
2018-07-23T11:09:01.593Z,16.50
2018-07-23T11:14:30.845Z,15.83
2018-07-23T11:20:00.102Z,17.05
2018-07-23T11:25:43.491Z,15.80
2018-07-23T11:30:58.829Z,16.53
2018-07-23T11:36:28.036Z,15.80
2018-07-23T11:41:57.258Z,16.50
2018-07-23T11:47:26.496Z,16.57
2018-07-23T11:52:55.742Z,14.80
2018-07-23T11:58:25.388Z,12.37
2018-07-23T12:03:54.726Z,15.00
2018-07-23T12:09:24.120Z,13.70
2018-07-23T12:14:53.385Z,15.18
2018-07-23T12:20:22.707Z,14.90
2018-07-23T12:25:52.036Z,15.95
2018-07-23T12:31:21.458Z,15.10
2018-07-23T12:36:50.855Z,15.27
2018-07-23T12:42:20.604Z,14.87
2018-07-23T12:47:49.998Z,14.83
2018-07-23T12:53:19.402Z,14.43
2018-07-23T12:58:49.060Z,12.30
2018-07-23T13:04:20.511Z,13.77
2018-07-23T13:09:50.306Z,14.15
2018-07-23T13:15:20.814Z,12.30
2018-07-23T13:20:50.348Z,14.60
2018-07-23T13:26:20.320Z,12.37
2018-07-23T13:31:50.047Z,13.48
2018-07-23T13:37:19.628Z,12.13
2018-07-23T13:42:49.528Z,14.00
2018-07-23T13:48:18.980Z,14.30
2018-07-23T13:53:48.523Z,13.53
2018-07-23T13:59:17.925Z,11.90
2018-07-23T14:04:47.557Z,11.45
2018-07-23T14:10:17.055Z,11.80
2018-07-23T14:15:46.666Z,12.65
2018-07-23T14:21:15.941Z,13.83
2018-07-23T14:26:45.333Z,12.45
2018-07-23T14:32:14.622Z,12.07
2018-07-23T14:37:43.966Z,11.50
2018-07-23T14:43:13.338Z,11.40
2018-07-23T14:48:42.628Z,10.10
2018-07-23T14:54:12.926Z,11.05
2018-07-23T14:59:42.176Z,10.70
2018-07-23T15:05:11.428Z,11.65
2018-07-23T15:10:40.712Z,10.10
2018-07-23T15:16:09.969Z,9.57
2018-07-23T15:21:39.201Z,9.43
2018-07-23T15:27:08.293Z,10.60
2018-07-23T15:32:37.598Z,8.88
2018-07-23T15:38:06.867Z,9.05
2018-07-23T15:43:36.339Z,9.73
2018-07-23T15:49:05.584Z,7.70
2018-07-23T15:54:35.261Z,9.40
2018-07-23T16:00:05.576Z,9.03
2018-07-23T16:05:34.923Z,8.50
2018-07-23T16:11:04.177Z,10.67
2018-07-23T16:16:33.792Z,9.70
2018-07-23T16:22:03.480Z,10.10
2018-07-23T16:27:32.787Z,9.53
2018-07-23T16:33:02.055Z,8.70
2018-07-23T16:38:31.295Z,9.40
2018-07-23T16:44:00.548Z,8.47
2018-07-23T16:49:29.924Z,8.80
2018-07-23T16:54:59.182Z,8.77
2018-07-23T17:00:29.018Z,10.33
2018-07-23T17:05:58.660Z,9.90
2018-07-23T17:11:28.058Z,9.80
2018-07-23T17:16:57.440Z,11.00
2018-07-23T17:22:28.090Z,10.40
2018-07-23T17:27:57.462Z,10.60
2018-07-23T17:33:26.684Z,11.07
2018-07-23T17:38:56.273Z,11.67
2018-07-23T17:44:25.458Z,10.50
2018-07-23T17:49:55.078Z,11.17
2018-07-23T17:55:24.347Z,11.93
2018-07-23T18:00:53.618Z,10.30
2018-07-23T18:06:23.151Z,10.53
2018-07-23T18:11:56.502Z,14.43
2018-07-23T18:17:25.901Z,17.00
2018-07-23T18:22:55.156Z,16.63
2018-07-23T18:28:24.503Z,17.37
2018-07-23T18:33:53.886Z,21.20
2018-07-23T18:39:23.237Z,16.40
2018-07-23T18:44:53.581Z,17.52
2018-07-23T18:50:23.021Z,18.80
2018-07-23T18:55:52.516Z,19.90
2018-07-23T19:01:21.961Z,20.85
2018-07-23T19:06:51.649Z,21.30
2018-07-23T19:12:21.161Z,20.75
2018-07-23T19:17:50.628Z,16.85
2018-07-23T19:23:21.036Z,16.15
2018-07-23T19:28:50.392Z,17.37
2018-07-23T19:34:19.862Z,16.15
2018-07-23T19:39:49.202Z,15.63
2018-07-23T19:45:18.531Z,16.95
2018-07-23T19:50:48.012Z,16.70
2018-07-23T19:56:17.299Z,13.17
2018-07-23T20:01:46.795Z,12.73
2018-07-23T20:07:16.073Z,9.25
2018-07-23T20:12:45.323Z,9.08
2018-07-23T20:18:14.625Z,9.13
2018-07-23T20:23:44.375Z,10.78
2018-07-23T20:29:13.762Z,9.10
2018-07-23T20:34:43.091Z,9.90
2018-07-23T20:40:12.462Z,9.90
2018-07-23T20:45:41.715Z,8.43
2018-07-23T20:51:11.175Z,7.95
2018-07-23T20:56:40.511Z,8.57
2018-07-23T21:02:09.850Z,8.70
2018-07-23T21:07:39.119Z,10.10
2018-07-23T21:13:08.448Z,8.83
2018-07-23T21:18:37.685Z,8.95
2018-07-23T21:24:06.998Z,9.18
2018-07-23T21:29:36.345Z,9.60
2018-07-23T21:35:05.997Z,9.40
2018-07-23T21:40:35.356Z,8.90
2018-07-23T21:46:04.895Z,9.15
2018-07-23T21:51:34.292Z,8.60
2018-07-23T21:57:03.716Z,9.13
2018-07-23T22:02:33.463Z,9.45
2018-07-23T22:08:02.780Z,9.85
2018-07-23T22:13:32.015Z,10.57
2018-07-23T22:19:01.486Z,12.00
2018-07-23T22:24:30.790Z,10.63
2018-07-23T22:30:00.029Z,10.63
2018-07-23T22:35:29.218Z,10.33
2018-07-23T22:40:58.531Z,11.22
2018-07-23T22:46:27.782Z,11.15
2018-07-23T22:51:57.079Z,11.33
2018-07-23T22:57:26.349Z,10.93
2018-07-23T23:02:55.817Z,11.93
2018-07-23T23:08:25.169Z,10.43
2018-07-23T23:13:54.527Z,11.50
2018-07-23T23:19:23.937Z,11.13
2018-07-23T23:24:53.268Z,11.85
2018-07-23T23:30:22.671Z,12.37
2018-07-23T23:35:52.077Z,11.35
2018-07-23T23:41:21.500Z,11.38
2018-07-23T23:46:50.841Z,12.33
2018-07-23T23:52:20.180Z,11.83
2018-07-23T23:57:49.531Z,11.73
